Northeast, Indiana
Current Conditions -  °F | °C
As of 11:04 PM on Tuesday 25 Nov 2014 (Local Time) from KBMG Reporting Station
Overcast Overcast  
Wind Chill: 29°   Ceiling: 1400
Heat Index: 29°   Visibility: 10mi
Dew Point: 23°   Wind: 0mph
Humidity: 78%   Direction: NA
Pressure: 30.18"   Gusts: NA
Location:  38.6433°N, 86.4481°W
Report Text: KBMG 260404Z 00000KT 10SM OVC014 M02/M05 A3018 RMK AO2 T10171050
Loading
Personal Weather Stations






























Interactive Weather Map New forecast layout! Learn more

10-Day Weather Forecast

Advertisements
Track Severe Weather on mobile